sensor_id;sensor_type;location;lat;lon;timestamp;P1;durP1;ratioP1;P2;durP2;ratioP2
60243;SDS011;46106;51.468;5.814;2023-12-22T00:01:21;17.63;;;1.15;;
60243;SDS011;46106;51.468;5.814;2023-12-22T00:03:46;19.77;;;1.58;;
60243;SDS011;46106;51.468;5.814;2023-12-22T00:06:11;18.70;;;2.17;;
60243;SDS011;46106;51.468;5.814;2023-12-22T00:08:37;19.60;;;1.73;;
60243;SDS011;46106;51.468;5.814;2023-12-22T00:11:03;12.50;;;1.40;;
60243;SDS011;46106;51.468;5.814;2023-12-22T00:13:29;22.42;;;1.67;;
60243;SDS011;46106;51.468;5.814;2023-12-22T00:15:54;24.38;;;1.95;;
60243;SDS011;46106;51.468;5.814;2023-12-22T00:18:20;20.50;;;1.90;;
60243;SDS011;46106;51.468;5.814;2023-12-22T00:20:45;6.97;;;1.15;;
60243;SDS011;46106;51.468;5.814;2023-12-22T00:23:11;16.80;;;1.50;;
60243;SDS011;46106;51.468;5.814;2023-12-22T00:25:36;20.48;;;3.30;;
60243;SDS011;46106;51.468;5.814;2023-12-22T00:28:02;14.43;;;1.65;;
60243;SDS011;46106;51.468;5.814;2023-12-22T00:30:27;19.40;;;1.63;;
60243;SDS011;46106;51.468;5.814;2023-12-22T00:32:52;21.30;;;2.03;;
60243;SDS011;46106;51.468;5.814;2023-12-22T00:35:18;11.52;;;1.60;;
60243;SDS011;46106;51.468;5.814;2023-12-22T00:37:43;16.40;;;1.73;;
60243;SDS011;46106;51.468;5.814;2023-12-22T00:40:09;9.80;;;1.10;;
60243;SDS011;46106;51.468;5.814;2023-12-22T00:42:35;14.20;;;1.33;;
60243;SDS011;46106;51.468;5.814;2023-12-22T00:45:00;13.60;;;1.33;;
60243;SDS011;46106;51.468;5.814;2023-12-22T00:47:26;11.50;;;1.67;;
60243;SDS011;46106;51.468;5.814;2023-12-22T00:49:51;8.88;;;1.20;;
60243;SDS011;46106;51.468;5.814;2023-12-22T00:52:17;14.05;;;1.48;;
60243;SDS011;46106;51.468;5.814;2023-12-22T00:54:42;15.73;;;1.45;;
60243;SDS011;46106;51.468;5.814;2023-12-22T00:57:08;9.82;;;1.35;;
60243;SDS011;46106;51.468;5.814;2023-12-22T00:59:33;14.32;;;1.40;;
60243;SDS011;46106;51.468;5.814;2023-12-22T01:01:58;11.18;;;1.10;;
60243;SDS011;46106;51.468;5.814;2023-12-22T01:04:24;18.88;;;1.38;;
60243;SDS011;46106;51.468;5.814;2023-12-22T01:06:49;24.38;;;2.00;;
60243;SDS011;46106;51.468;5.814;2023-12-22T01:09:15;17.70;;;1.38;;
60243;SDS011;46106;51.468;5.814;2023-12-22T01:11:40;19.67;;;1.33;;
60243;SDS011;46106;51.468;5.814;2023-12-22T01:14:06;20.65;;;1.55;;
60243;SDS011;46106;51.468;5.814;2023-12-22T01:16:32;19.65;;;1.52;;
60243;SDS011;46106;51.468;5.814;2023-12-22T01:18:58;14.10;;;1.38;;
60243;SDS011;46106;51.468;5.814;2023-12-22T01:21:23;16.33;;;1.75;;
60243;SDS011;46106;51.468;5.814;2023-12-22T01:23:49;12.68;;;1.35;;
60243;SDS011;46106;51.468;5.814;2023-12-22T01:26:14;25.55;;;2.10;;
60243;SDS011;46106;51.468;5.814;2023-12-22T01:28:39;17.92;;;2.22;;
60243;SDS011;46106;51.468;5.814;2023-12-22T01:31:05;23.35;;;2.33;;
60243;SDS011;46106;51.468;5.814;2023-12-22T01:33:30;25.25;;;1.73;;
60243;SDS011;46106;51.468;5.814;2023-12-22T01:35:56;18.38;;;1.95;;
60243;SDS011;46106;51.468;5.814;2023-12-22T01:38:21;15.20;;;1.95;;
60243;SDS011;46106;51.468;5.814;2023-12-22T01:40:47;16.10;;;1.60;;
60243;SDS011;46106;51.468;5.814;2023-12-22T01:43:14;21.77;;;2.42;;
60243;SDS011;46106;51.468;5.814;2023-12-22T01:45:42;10.40;;;1.33;;
60243;SDS011;46106;51.468;5.814;2023-12-22T01:48:09;14.93;;;2.03;;
60243;SDS011;46106;51.468;5.814;2023-12-22T01:50:35;24.73;;;1.92;;
60243;SDS011;46106;51.468;5.814;2023-12-22T01:53:02;21.00;;;1.50;;
60243;SDS011;46106;51.468;5.814;2023-12-22T01:55:27;27.77;;;2.03;;
60243;SDS011;46106;51.468;5.814;2023-12-22T01:57:53;21.42;;;2.08;;
60243;SDS011;46106;51.468;5.814;2023-12-22T02:00:18;24.08;;;1.83;;
60243;SDS011;46106;51.468;5.814;2023-12-22T02:02:44;14.18;;;1.90;;
60243;SDS011;46106;51.468;5.814;2023-12-22T02:05:10;19.35;;;2.30;;
60243;SDS011;46106;51.468;5.814;2023-12-22T02:07:41;17.02;;;2.13;;
60243;SDS011;46106;51.468;5.814;2023-12-22T02:10:07;24.20;;;3.08;;
60243;SDS011;46106;51.468;5.814;2023-12-22T02:12:34;25.13;;;2.38;;
60243;SDS011;46106;51.468;5.814;2023-12-22T02:15:00;33.45;;;2.53;;
60243;SDS011;46106;51.468;5.814;2023-12-22T02:17:26;26.48;;;2.88;;
60243;SDS011;46106;51.468;5.814;2023-12-22T02:19:57;29.48;;;2.50;;
60243;SDS011;46106;51.468;5.814;2023-12-22T02:22:23;19.20;;;2.00;;
60243;SDS011;46106;51.468;5.814;2023-12-22T02:24:49;18.63;;;2.03;;
60243;SDS011;46106;51.468;5.814;2023-12-22T02:30:03;36.03;;;3.92;;
60243;SDS011;46106;51.468;5.814;2023-12-22T02:32:38;34.08;;;2.88;;
60243;SDS011;46106;51.468;5.814;2023-12-22T02:35:16;26.48;;;2.30;;
60243;SDS011;46106;51.468;5.814;2023-12-22T02:37:47;20.52;;;1.95;;
60243;SDS011;46106;51.468;5.814;2023-12-22T02:40:14;21.63;;;2.28;;
60243;SDS011;46106;51.468;5.814;2023-12-22T02:42:40;17.92;;;1.80;;
60243;SDS011;46106;51.468;5.814;2023-12-22T02:45:06;23.50;;;2.70;;
60243;SDS011;46106;51.468;5.814;2023-12-22T02:47:39;14.95;;;1.83;;
60243;SDS011;46106;51.468;5.814;2023-12-22T02:50:05;18.70;;;1.90;;
60243;SDS011;46106;51.468;5.814;2023-12-22T02:52:31;18.35;;;1.30;;
60243;SDS011;46106;51.468;5.814;2023-12-22T02:54:57;22.77;;;2.33;;
60243;SDS011;46106;51.468;5.814;2023-12-22T02:57:23;19.65;;;1.77;;
60243;SDS011;46106;51.468;5.814;2023-12-22T02:59:48;23.38;;;2.30;;
60243;SDS011;46106;51.468;5.814;2023-12-22T03:02:14;17.85;;;2.45;;
60243;SDS011;46106;51.468;5.814;2023-12-22T03:04:39;17.17;;;2.05;;
60243;SDS011;46106;51.468;5.814;2023-12-22T03:07:05;17.27;;;1.65;;
60243;SDS011;46106;51.468;5.814;2023-12-22T03:09:30;26.85;;;2.85;;
60243;SDS011;46106;51.468;5.814;2023-12-22T03:11:57;16.80;;;1.85;;
60243;SDS011;46106;51.468;5.814;2023-12-22T03:14:27;21.35;;;2.20;;
60243;SDS011;46106;51.468;5.814;2023-12-22T03:16:58;24.98;;;2.47;;
60243;SDS011;46106;51.468;5.814;2023-12-22T03:19:27;17.15;;;1.60;;
60243;SDS011;46106;51.468;5.814;2023-12-22T03:21:52;14.70;;;1.75;;
60243;SDS011;46106;51.468;5.814;2023-12-22T03:24:18;22.00;;;2.00;;
60243;SDS011;46106;51.468;5.814;2023-12-22T03:26:44;21.92;;;1.67;;
60243;SDS011;46106;51.468;5.814;2023-12-22T03:29:10;22.58;;;2.13;;
60243;SDS011;46106;51.468;5.814;2023-12-22T03:31:36;12.18;;;1.40;;
60243;SDS011;46106;51.468;5.814;2023-12-22T03:34:01;19.52;;;1.75;;
60243;SDS011;46106;51.468;5.814;2023-12-22T03:36:26;13.05;;;1.50;;
60243;SDS011;46106;51.468;5.814;2023-12-22T03:38:52;25.95;;;2.15;;
60243;SDS011;46106;51.468;5.814;2023-12-22T03:41:17;18.38;;;1.63;;
60243;SDS011;46106;51.468;5.814;2023-12-22T03:43:43;21.95;;;2.67;;
60243;SDS011;46106;51.468;5.814;2023-12-22T03:46:08;21.23;;;1.85;;
60243;SDS011;46106;51.468;5.814;2023-12-22T03:48:35;20.75;;;2.08;;
60243;SDS011;46106;51.468;5.814;2023-12-22T03:51:00;13.32;;;1.73;;
60243;SDS011;46106;51.468;5.814;2023-12-22T03:53:25;21.30;;;2.00;;
60243;SDS011;46106;51.468;5.814;2023-12-22T03:55:51;20.83;;;3.03;;
60243;SDS011;46106;51.468;5.814;2023-12-22T03:58:16;28.25;;;2.75;;
60243;SDS011;46106;51.468;5.814;2023-12-22T04:00:42;23.70;;;2.15;;
60243;SDS011;46106;51.468;5.814;2023-12-22T04:03:07;19.27;;;2.33;;
60243;SDS011;46106;51.468;5.814;2023-12-22T04:05:32;15.60;;;2.75;;
60243;SDS011;46106;51.468;5.814;2023-12-22T04:07:58;22.48;;;2.50;;
60243;SDS011;46106;51.468;5.814;2023-12-22T04:10:23;25.13;;;2.53;;
60243;SDS011;46106;51.468;5.814;2023-12-22T04:12:48;21.23;;;1.83;;
60243;SDS011;46106;51.468;5.814;2023-12-22T04:15:14;16.25;;;1.73;;
60243;SDS011;46106;51.468;5.814;2023-12-22T04:17:39;20.70;;;2.78;;
60243;SDS011;46106;51.468;5.814;2023-12-22T04:20:06;19.15;;;1.90;;
60243;SDS011;46106;51.468;5.814;2023-12-22T04:22:32;24.80;;;1.85;;
60243;SDS011;46106;51.468;5.814;2023-12-22T04:24:57;22.58;;;1.80;;
60243;SDS011;46106;51.468;5.814;2023-12-22T04:27:23;23.60;;;2.00;;
60243;SDS011;46106;51.468;5.814;2023-12-22T04:29:48;14.05;;;1.55;;
60243;SDS011;46106;51.468;5.814;2023-12-22T04:32:14;17.67;;;2.25;;
60243;SDS011;46106;51.468;5.814;2023-12-22T04:34:39;12.52;;;1.52;;
60243;SDS011;46106;51.468;5.814;2023-12-22T04:37:05;25.73;;;2.72;;
60243;SDS011;46106;51.468;5.814;2023-12-22T04:39:30;9.40;;;1.35;;
60243;SDS011;46106;51.468;5.814;2023-12-22T04:41:55;21.88;;;2.50;;
60243;SDS011;46106;51.468;5.814;2023-12-22T04:44:21;20.55;;;1.80;;
60243;SDS011;46106;51.468;5.814;2023-12-22T04:46:46;18.88;;;2.05;;
60243;SDS011;46106;51.468;5.814;2023-12-22T04:49:12;21.88;;;3.28;;
60243;SDS011;46106;51.468;5.814;2023-12-22T04:51:37;7.55;;;1.10;;
60243;SDS011;46106;51.468;5.814;2023-12-22T04:54:02;21.58;;;1.85;;
60243;SDS011;46106;51.468;5.814;2023-12-22T04:56:28;18.30;;;1.75;;
60243;SDS011;46106;51.468;5.814;2023-12-22T04:58:53;15.10;;;1.40;;
60243;SDS011;46106;51.468;5.814;2023-12-22T05:01:19;19.92;;;2.03;;
60243;SDS011;46106;51.468;5.814;2023-12-22T05:03:44;22.23;;;2.40;;
60243;SDS011;46106;51.468;5.814;2023-12-22T05:06:10;17.02;;;1.25;;
60243;SDS011;46106;51.468;5.814;2023-12-22T05:08:35;20.67;;;1.90;;
60243;SDS011;46106;51.468;5.814;2023-12-22T05:11:01;13.07;;;1.95;;
60243;SDS011;46106;51.468;5.814;2023-12-22T05:13:26;16.02;;;1.77;;
60243;SDS011;46106;51.468;5.814;2023-12-22T05:15:52;12.50;;;1.50;;
60243;SDS011;46106;51.468;5.814;2023-12-22T05:18:17;12.50;;;1.50;;
60243;SDS011;46106;51.468;5.814;2023-12-22T05:20:42;18.27;;;1.60;;
60243;SDS011;46106;51.468;5.814;2023-12-22T05:23:08;19.85;;;2.00;;
60243;SDS011;46106;51.468;5.814;2023-12-22T05:25:34;19.90;;;2.03;;
60243;SDS011;46106;51.468;5.814;2023-12-22T05:27:59;19.35;;;2.03;;
60243;SDS011;46106;51.468;5.814;2023-12-22T05:30:25;13.10;;;1.63;;
60243;SDS011;46106;51.468;5.814;2023-12-22T05:32:50;14.57;;;1.52;;
60243;SDS011;46106;51.468;5.814;2023-12-22T05:35:15;8.82;;;1.65;;
60243;SDS011;46106;51.468;5.814;2023-12-22T05:37:41;26.20;;;2.78;;
60243;SDS011;46106;51.468;5.814;2023-12-22T05:40:06;21.15;;;2.25;;
60243;SDS011;46106;51.468;5.814;2023-12-22T05:42:32;23.30;;;1.63;;
60243;SDS011;46106;51.468;5.814;2023-12-22T05:44:58;12.80;;;1.90;;
60243;SDS011;46106;51.468;5.814;2023-12-22T05:47:23;17.65;;;2.13;;
60243;SDS011;46106;51.468;5.814;2023-12-22T05:49:49;16.55;;;1.80;;
60243;SDS011;46106;51.468;5.814;2023-12-22T05:52:14;8.50;;;1.25;;
60243;SDS011;46106;51.468;5.814;2023-12-22T05:54:39;13.77;;;1.42;;
60243;SDS011;46106;51.468;5.814;2023-12-22T05:57:05;8.88;;;1.17;;
60243;SDS011;46106;51.468;5.814;2023-12-22T05:59:31;9.23;;;0.85;;
60243;SDS011;46106;51.468;5.814;2023-12-22T06:01:58;10.80;;;1.77;;
60243;SDS011;46106;51.468;5.814;2023-12-22T06:04:24;17.75;;;1.98;;
60243;SDS011;46106;51.468;5.814;2023-12-22T06:06:50;14.48;;;1.50;;
60243;SDS011;46106;51.468;5.814;2023-12-22T06:09:15;16.52;;;1.23;;
60243;SDS011;46106;51.468;5.814;2023-12-22T06:11:43;18.70;;;1.73;;
60243;SDS011;46106;51.468;5.814;2023-12-22T06:14:09;19.58;;;2.15;;
60243;SDS011;46106;51.468;5.814;2023-12-22T06:16:34;13.95;;;1.67;;
60243;SDS011;46106;51.468;5.814;2023-12-22T06:18:59;21.58;;;1.95;;
60243;SDS011;46106;51.468;5.814;2023-12-22T06:21:25;23.15;;;2.72;;
60243;SDS011;46106;51.468;5.814;2023-12-22T06:23:50;16.73;;;2.17;;
60243;SDS011;46106;51.468;5.814;2023-12-22T06:26:15;32.33;;;3.65;;
60243;SDS011;46106;51.468;5.814;2023-12-22T06:28:41;25.27;;;3.40;;
60243;SDS011;46106;51.468;5.814;2023-12-22T06:31:06;17.23;;;2.10;;
60243;SDS011;46106;51.468;5.814;2023-12-22T06:33:33;23.27;;;2.38;;
60243;SDS011;46106;51.468;5.814;2023-12-22T06:35:58;23.58;;;2.60;;
60243;SDS011;46106;51.468;5.814;2023-12-22T06:38:24;26.88;;;2.85;;
60243;SDS011;46106;51.468;5.814;2023-12-22T06:40:49;24.20;;;2.35;;
60243;SDS011;46106;51.468;5.814;2023-12-22T06:43:15;18.38;;;2.38;;
60243;SDS011;46106;51.468;5.814;2023-12-22T06:45:41;21.75;;;2.75;;
60243;SDS011;46106;51.468;5.814;2023-12-22T06:48:06;26.63;;;3.08;;
60243;SDS011;46106;51.468;5.814;2023-12-22T06:50:32;25.55;;;3.35;;
60243;SDS011;46106;51.468;5.814;2023-12-22T06:52:58;24.50;;;3.00;;
60243;SDS011;46106;51.468;5.814;2023-12-22T06:55:24;38.03;;;3.58;;
60243;SDS011;46106;51.468;5.814;2023-12-22T06:57:49;29.52;;;3.40;;
60243;SDS011;46106;51.468;5.814;2023-12-22T07:00:15;36.80;;;3.17;;
60243;SDS011;46106;51.468;5.814;2023-12-22T07:02:40;47.10;;;4.03;;
60243;SDS011;46106;51.468;5.814;2023-12-22T07:07:35;49.10;;;3.80;;
60243;SDS011;46106;51.468;5.814;2023-12-22T07:10:02;48.80;;;5.22;;
60243;SDS011;46106;51.468;5.814;2023-12-22T07:12:28;35.83;;;4.25;;
60243;SDS011;46106;51.468;5.814;2023-12-22T07:14:53;46.20;;;5.88;;
60243;SDS011;46106;51.468;5.814;2023-12-22T07:17:19;47.42;;;4.30;;
60243;SDS011;46106;51.468;5.814;2023-12-22T07:19:44;49.50;;;5.63;;
60243;SDS011;46106;51.468;5.814;2023-12-22T07:22:10;53.13;;;6.38;;
60243;SDS011;46106;51.468;5.814;2023-12-22T07:24:35;52.03;;;4.80;;
60243;SDS011;46106;51.468;5.814;2023-12-22T07:27:01;40.47;;;4.75;;
60243;SDS011;46106;51.468;5.814;2023-12-22T07:29:26;49.10;;;5.15;;
60243;SDS011;46106;51.468;5.814;2023-12-22T07:31:52;52.72;;;5.35;;
60243;SDS011;46106;51.468;5.814;2023-12-22T07:34:17;51.90;;;5.80;;
60243;SDS011;46106;51.468;5.814;2023-12-22T07:36:43;43.35;;;5.55;;
60243;SDS011;46106;51.468;5.814;2023-12-22T07:39:09;47.60;;;4.78;;
60243;SDS011;46106;51.468;5.814;2023-12-22T07:41:35;44.33;;;4.97;;
60243;SDS011;46106;51.468;5.814;2023-12-22T07:44:01;44.15;;;5.18;;
60243;SDS011;46106;51.468;5.814;2023-12-22T07:46:27;32.25;;;4.20;;
60243;SDS011;46106;51.468;5.814;2023-12-22T07:48:53;41.88;;;4.82;;
60243;SDS011;46106;51.468;5.814;2023-12-22T07:51:19;38.30;;;5.03;;
60243;SDS011;46106;51.468;5.814;2023-12-22T07:53:45;47.38;;;5.18;;
60243;SDS011;46106;51.468;5.814;2023-12-22T07:56:11;54.45;;;5.97;;
60243;SDS011;46106;51.468;5.814;2023-12-22T07:58:37;37.00;;;4.55;;
60243;SDS011;46106;51.468;5.814;2023-12-22T08:01:03;42.65;;;4.35;;
60243;SDS011;46106;51.468;5.814;2023-12-22T08:03:30;45.92;;;4.90;;
60243;SDS011;46106;51.468;5.814;2023-12-22T08:05:56;33.75;;;3.75;;
60243;SDS011;46106;51.468;5.814;2023-12-22T08:08:21;41.80;;;5.25;;
60243;SDS011;46106;51.468;5.814;2023-12-22T08:10:47;38.80;;;4.72;;
60243;SDS011;46106;51.468;5.814;2023-12-22T08:13:13;44.28;;;5.45;;
60243;SDS011;46106;51.468;5.814;2023-12-22T08:15:38;29.10;;;4.20;;
60243;SDS011;46106;51.468;5.814;2023-12-22T08:18:04;44.42;;;5.38;;
60243;SDS011;46106;51.468;5.814;2023-12-22T08:20:30;42.30;;;4.88;;
60243;SDS011;46106;51.468;5.814;2023-12-22T08:22:55;33.13;;;3.65;;
60243;SDS011;46106;51.468;5.814;2023-12-22T08:25:20;36.47;;;4.43;;
60243;SDS011;46106;51.468;5.814;2023-12-22T08:27:46;29.10;;;3.55;;
60243;SDS011;46106;51.468;5.814;2023-12-22T08:30:12;39.70;;;5.28;;
60243;SDS011;46106;51.468;5.814;2023-12-22T08:32:38;37.08;;;3.42;;
60243;SDS011;46106;51.468;5.814;2023-12-22T08:35:03;27.67;;;2.75;;
60243;SDS011;46106;51.468;5.814;2023-12-22T08:37:29;42.53;;;3.63;;
60243;SDS011;46106;51.468;5.814;2023-12-22T08:39:55;30.25;;;3.13;;
60243;SDS011;46106;51.468;5.814;2023-12-22T08:42:21;34.15;;;3.17;;
60243;SDS011;46106;51.468;5.814;2023-12-22T08:44:47;27.77;;;3.72;;
60243;SDS011;46106;51.468;5.814;2023-12-22T08:47:13;31.95;;;3.58;;
60243;SDS011;46106;51.468;5.814;2023-12-22T08:49:38;31.17;;;3.78;;
60243;SDS011;46106;51.468;5.814;2023-12-22T08:52:04;28.52;;;3.17;;
60243;SDS011;46106;51.468;5.814;2023-12-22T08:54:30;28.55;;;2.40;;
60243;SDS011;46106;51.468;5.814;2023-12-22T08:56:55;31.27;;;3.47;;
60243;SDS011;46106;51.468;5.814;2023-12-22T08:59:21;24.33;;;3.08;;
60243;SDS011;46106;51.468;5.814;2023-12-22T09:01:46;28.90;;;2.40;;
60243;SDS011;46106;51.468;5.814;2023-12-22T09:04:12;24.05;;;3.58;;
60243;SDS011;46106;51.468;5.814;2023-12-22T09:06:37;18.08;;;2.22;;
60243;SDS011;46106;51.468;5.814;2023-12-22T09:09:04;15.05;;;2.22;;
60243;SDS011;46106;51.468;5.814;2023-12-22T09:11:30;20.25;;;1.80;;
60243;SDS011;46106;51.468;5.814;2023-12-22T09:13:55;19.83;;;2.80;;
60243;SDS011;46106;51.468;5.814;2023-12-22T09:16:21;15.73;;;1.77;;
60243;SDS011;46106;51.468;5.814;2023-12-22T09:18:47;26.67;;;2.45;;
60243;SDS011;46106;51.468;5.814;2023-12-22T09:21:14;13.63;;;1.75;;
60243;SDS011;46106;51.468;5.814;2023-12-22T09:23:40;12.32;;;1.50;;
60243;SDS011;46106;51.468;5.814;2023-12-22T09:26:09;15.02;;;2.55;;
60243;SDS011;46106;51.468;5.814;2023-12-22T09:28:35;13.40;;;2.15;;
60243;SDS011;46106;51.468;5.814;2023-12-22T09:31:00;11.18;;;2.92;;
60243;SDS011;46106;51.468;5.814;2023-12-22T09:33:26;14.57;;;2.75;;
60243;SDS011;46106;51.468;5.814;2023-12-22T09:35:51;10.63;;;1.10;;
60243;SDS011;46106;51.468;5.814;2023-12-22T09:38:17;14.25;;;1.88;;
60243;SDS011;46106;51.468;5.814;2023-12-22T09:40:42;11.18;;;1.40;;
60243;SDS011;46106;51.468;5.814;2023-12-22T09:43:08;13.70;;;1.67;;
60243;SDS011;46106;51.468;5.814;2023-12-22T09:45:34;15.52;;;1.95;;
60243;SDS011;46106;51.468;5.814;2023-12-22T09:48:01;10.75;;;1.13;;
60243;SDS011;46106;51.468;5.814;2023-12-22T09:50:28;7.90;;;1.23;;
60243;SDS011;46106;51.468;5.814;2023-12-22T09:52:55;5.05;;;1.00;;
60243;SDS011;46106;51.468;5.814;2023-12-22T09:55:23;6.68;;;1.33;;
60243;SDS011;46106;51.468;5.814;2023-12-22T09:57:51;8.00;;;1.13;;
60243;SDS011;46106;51.468;5.814;2023-12-22T10:00:26;4.65;;;1.05;;
60243;SDS011;46106;51.468;5.814;2023-12-22T10:02:53;6.53;;;0.90;;
60243;SDS011;46106;51.468;5.814;2023-12-22T10:05:19;9.85;;;1.02;;
60243;SDS011;46106;51.468;5.814;2023-12-22T10:07:46;10.15;;;1.27;;
60243;SDS011;46106;51.468;5.814;2023-12-22T10:10:12;4.13;;;0.80;;
60243;SDS011;46106;51.468;5.814;2023-12-22T10:12:38;10.45;;;1.15;;
60243;SDS011;46106;51.468;5.814;2023-12-22T10:15:05;3.30;;;0.90;;
60243;SDS011;46106;51.468;5.814;2023-12-22T10:17:32;7.50;;;1.05;;
60243;SDS011;46106;51.468;5.814;2023-12-22T10:19:58;7.90;;;1.45;;
60243;SDS011;46106;51.468;5.814;2023-12-22T10:22:24;7.38;;;0.98;;
60243;SDS011;46106;51.468;5.814;2023-12-22T10:24:49;6.72;;;0.85;;
60243;SDS011;46106;51.468;5.814;2023-12-22T10:27:16;5.15;;;0.65;;
60243;SDS011;46106;51.468;5.814;2023-12-22T10:29:55;8.25;;;0.80;;
60243;SDS011;46106;51.468;5.814;2023-12-22T10:32:21;5.80;;;0.90;;
60243;SDS011;46106;51.468;5.814;2023-12-22T10:34:47;6.00;;;0.90;;
60243;SDS011;46106;51.468;5.814;2023-12-22T10:37:15;4.93;;;0.80;;
60243;SDS011;46106;51.468;5.814;2023-12-22T10:39:41;10.95;;;1.15;;
60243;SDS011;46106;51.468;5.814;2023-12-22T10:42:06;6.38;;;0.98;;
60243;SDS011;46106;51.468;5.814;2023-12-22T10:44:32;8.80;;;1.75;;
60243;SDS011;46106;51.468;5.814;2023-12-22T10:46:58;4.65;;;0.80;;
60243;SDS011;46106;51.468;5.814;2023-12-22T10:49:25;7.00;;;1.17;;
60243;SDS011;46106;51.468;5.814;2023-12-22T10:51:51;5.13;;;0.73;;
60243;SDS011;46106;51.468;5.814;2023-12-22T10:54:17;4.78;;;0.98;;
60243;SDS011;46106;51.468;5.814;2023-12-22T10:56:45;7.38;;;0.93;;
60243;SDS011;46106;51.468;5.814;2023-12-22T10:59:10;9.00;;;1.33;;
60243;SDS011;46106;51.468;5.814;2023-12-22T11:01:36;3.97;;;0.90;;
60243;SDS011;46106;51.468;5.814;2023-12-22T11:04:05;3.25;;;0.90;;
60243;SDS011;46106;51.468;5.814;2023-12-22T11:06:35;5.40;;;0.85;;
60243;SDS011;46106;51.468;5.814;2023-12-22T11:09:03;6.15;;;0.77;;
60243;SDS011;46106;51.468;5.814;2023-12-22T11:11:34;3.30;;;0.77;;
60243;SDS011;46106;51.468;5.814;2023-12-22T11:14:01;7.18;;;1.00;;
60243;SDS011;46106;51.468;5.814;2023-12-22T11:16:30;7.05;;;1.00;;
60243;SDS011;46106;51.468;5.814;2023-12-22T11:18:58;3.72;;;0.90;;
60243;SDS011;46106;51.468;5.814;2023-12-22T11:21:25;6.25;;;0.80;;
60243;SDS011;46106;51.468;5.814;2023-12-22T11:23:51;9.25;;;0.80;;
60243;SDS011;46106;51.468;5.814;2023-12-22T11:26:18;5.90;;;1.13;;
60243;SDS011;46106;51.468;5.814;2023-12-22T11:28:48;6.03;;;1.33;;
60243;SDS011;46106;51.468;5.814;2023-12-22T11:31:16;8.30;;;1.58;;
60243;SDS011;46106;51.468;5.814;2023-12-22T11:33:50;5.38;;;0.68;;
60243;SDS011;46106;51.468;5.814;2023-12-22T11:36:16;2.92;;;0.80;;
60243;SDS011;46106;51.468;5.814;2023-12-22T11:38:44;3.22;;;0.82;;
60243;SDS011;46106;51.468;5.814;2023-12-22T11:41:12;5.25;;;1.08;;
60243;SDS011;46106;51.468;5.814;2023-12-22T11:43:42;5.80;;;1.35;;
60243;SDS011;46106;51.468;5.814;2023-12-22T11:46:09;10.85;;;1.25;;
60243;SDS011;46106;51.468;5.814;2023-12-22T11:48:35;4.35;;;1.00;;
60243;SDS011;46106;51.468;5.814;2023-12-22T11:51:02;7.68;;;1.15;;
60243;SDS011;46106;51.468;5.814;2023-12-22T11:53:38;2.90;;;0.60;;
60243;SDS011;46106;51.468;5.814;2023-12-22T12:03:35;10.98;;;1.00;;
60243;SDS011;46106;51.468;5.814;2023-12-22T12:06:11;4.43;;;0.90;;
60243;SDS011;46106;51.468;5.814;2023-12-22T12:08:43;9.73;;;0.98;;
60243;SDS011;46106;51.468;5.814;2023-12-22T12:11:09;5.72;;;0.82;;
60243;SDS011;46106;51.468;5.814;2023-12-22T12:13:35;5.55;;;0.82;;
60243;SDS011;46106;51.468;5.814;2023-12-22T12:16:06;5.93;;;0.88;;
60243;SDS011;46106;51.468;5.814;2023-12-22T12:18:31;8.40;;;1.02;;
60243;SDS011;46106;51.468;5.814;2023-12-22T12:20:58;5.45;;;0.73;;
60243;SDS011;46106;51.468;5.814;2023-12-22T12:23:24;7.63;;;1.30;;
60243;SDS011;46106;51.468;5.814;2023-12-22T12:25:51;6.20;;;0.93;;
60243;SDS011;46106;51.468;5.814;2023-12-22T12:28:18;6.78;;;0.90;;
60243;SDS011;46106;51.468;5.814;2023-12-22T12:30:54;6.28;;;1.38;;
60243;SDS011;46106;51.468;5.814;2023-12-22T12:33:24;4.45;;;0.70;;
60243;SDS011;46106;51.468;5.814;2023-12-22T12:35:52;7.05;;;1.30;;
60243;SDS011;46106;51.468;5.814;2023-12-22T12:38:20;7.50;;;1.08;;
60243;SDS011;46106;51.468;5.814;2023-12-22T12:40:49;4.43;;;1.10;;
60243;SDS011;46106;51.468;5.814;2023-12-22T12:43:15;3.65;;;0.80;;
60243;SDS011;46106;51.468;5.814;2023-12-22T12:45:42;8.65;;;0.95;;
60243;SDS011;46106;51.468;5.814;2023-12-22T12:48:08;5.78;;;1.08;;
60243;SDS011;46106;51.468;5.814;2023-12-22T12:50:34;6.90;;;0.82;;
60243;SDS011;46106;51.468;5.814;2023-12-22T12:53:00;7.05;;;0.90;;
60243;SDS011;46106;51.468;5.814;2023-12-22T12:55:26;10.93;;;0.90;;
60243;SDS011;46106;51.468;5.814;2023-12-22T12:57:52;8.85;;;1.27;;
60243;SDS011;46106;51.468;5.814;2023-12-22T13:02:55;13.57;;;1.65;;
60243;SDS011;46106;51.468;5.814;2023-12-22T13:05:24;8.95;;;0.75;;
60243;SDS011;46106;51.468;5.814;2023-12-22T13:07:50;8.00;;;0.98;;
60243;SDS011;46106;51.468;5.814;2023-12-22T13:10:22;4.70;;;0.85;;
60243;SDS011;46106;51.468;5.814;2023-12-22T13:12:52;5.63;;;1.38;;
60243;SDS011;46106;51.468;5.814;2023-12-22T13:15:19;11.05;;;1.02;;
60243;SDS011;46106;51.468;5.814;2023-12-22T13:17:46;6.93;;;0.90;;
60243;SDS011;46106;51.468;5.814;2023-12-22T13:20:12;3.25;;;0.60;;
60243;SDS011;46106;51.468;5.814;2023-12-22T13:22:38;6.03;;;1.55;;
60243;SDS011;46106;51.468;5.814;2023-12-22T13:25:04;12.27;;;1.45;;
60243;SDS011;46106;51.468;5.814;2023-12-22T13:27:30;10.43;;;1.10;;
60243;SDS011;46106;51.468;5.814;2023-12-22T13:29:56;7.97;;;1.48;;
60243;SDS011;46106;51.468;5.814;2023-12-22T13:32:21;8.85;;;1.13;;
60243;SDS011;46106;51.468;5.814;2023-12-22T13:34:52;7.78;;;0.93;;
60243;SDS011;46106;51.468;5.814;2023-12-22T13:37:19;11.77;;;2.10;;
60243;SDS011;46106;51.468;5.814;2023-12-22T13:39:49;8.40;;;1.00;;
60243;SDS011;46106;51.468;5.814;2023-12-22T13:42:16;11.23;;;1.17;;
60243;SDS011;46106;51.468;5.814;2023-12-22T13:44:46;13.02;;;1.75;;
60243;SDS011;46106;51.468;5.814;2023-12-22T13:47:20;7.78;;;0.98;;
60243;SDS011;46106;51.468;5.814;2023-12-22T13:49:47;6.45;;;0.85;;
60243;SDS011;46106;51.468;5.814;2023-12-22T13:54:52;10.02;;;1.23;;
60243;SDS011;46106;51.468;5.814;2023-12-22T13:57:20;7.45;;;0.90;;
60243;SDS011;46106;51.468;5.814;2023-12-22T13:59:47;11.65;;;1.10;;
60243;SDS011;46106;51.468;5.814;2023-12-22T14:02:12;17.80;;;2.03;;
60243;SDS011;46106;51.468;5.814;2023-12-22T14:04:38;12.00;;;1.40;;
60243;SDS011;46106;51.468;5.814;2023-12-22T14:07:03;10.70;;;1.10;;
60243;SDS011;46106;51.468;5.814;2023-12-22T14:09:29;8.77;;;1.15;;
60243;SDS011;46106;51.468;5.814;2023-12-22T14:11:58;10.85;;;1.75;;
60243;SDS011;46106;51.468;5.814;2023-12-22T14:14:23;9.35;;;1.10;;
60243;SDS011;46106;51.468;5.814;2023-12-22T14:16:49;10.38;;;1.40;;
60243;SDS011;46106;51.468;5.814;2023-12-22T14:19:14;8.80;;;1.60;;
60243;SDS011;46106;51.468;5.814;2023-12-22T14:21:40;12.00;;;1.40;;
60243;SDS011;46106;51.468;5.814;2023-12-22T14:24:05;3.38;;;1.00;;
60243;SDS011;46106;51.468;5.814;2023-12-22T14:26:31;14.32;;;1.40;;
60243;SDS011;46106;51.468;5.814;2023-12-22T14:28:56;8.50;;;1.17;;
60243;SDS011;46106;51.468;5.814;2023-12-22T14:31:22;14.55;;;1.70;;
60243;SDS011;46106;51.468;5.814;2023-12-22T14:33:47;14.50;;;1.50;;
60243;SDS011;46106;51.468;5.814;2023-12-22T14:36:13;8.20;;;1.00;;
60243;SDS011;46106;51.468;5.814;2023-12-22T14:38:38;14.15;;;1.48;;
60243;SDS011;46106;51.468;5.814;2023-12-22T14:41:04;11.27;;;1.27;;
60243;SDS011;46106;51.468;5.814;2023-12-22T14:43:29;5.68;;;1.60;;
60243;SDS011;46106;51.468;5.814;2023-12-22T14:45:55;10.93;;;1.83;;
60243;SDS011;46106;51.468;5.814;2023-12-22T14:48:20;16.00;;;1.50;;
60243;SDS011;46106;51.468;5.814;2023-12-22T14:50:45;9.88;;;1.30;;